createdAt,value
2023-03-04T00:00:45.908Z,451.00
2023-03-04T00:01:41.050Z,449.00
2023-03-04T00:02:36.130Z,448.00
2023-03-04T00:03:31.477Z,452.00
2023-03-04T00:04:26.479Z,453.00
2023-03-04T00:05:22.293Z,453.00
2023-03-04T00:06:17.543Z,447.00
2023-03-04T00:07:12.839Z,448.00
2023-03-04T00:08:08.641Z,452.00
2023-03-04T00:09:03.936Z,453.00
2023-03-04T00:09:59.678Z,453.00
2023-03-04T00:10:54.938Z,454.00
2023-03-04T00:11:50.262Z,449.00
2023-03-04T00:12:45.891Z,451.00
2023-03-04T00:13:41.077Z,450.00
2023-03-04T00:14:36.246Z,452.00
2023-03-04T00:15:32.786Z,443.00
2023-03-04T00:17:52.920Z,462.00
2023-03-04T00:18:49.577Z,455.00
2023-03-04T00:19:43.107Z,455.00
2023-03-04T00:20:38.293Z,453.00
2023-03-04T00:21:33.557Z,452.00
2023-03-04T00:22:28.703Z,455.00
2023-03-04T00:23:23.897Z,452.00
2023-03-04T00:24:19.168Z,449.00
2023-03-04T00:25:14.226Z,453.00
2023-03-04T00:26:09.387Z,451.00
2023-03-04T00:27:04.669Z,453.00
2023-03-04T00:27:59.907Z,446.00
2023-03-04T00:28:55.091Z,456.00
2023-03-04T00:29:50.222Z,453.00
2023-03-04T00:30:45.391Z,454.00
2023-03-04T00:31:40.575Z,457.00
2023-03-04T00:32:35.795Z,462.00
2023-03-04T00:33:30.971Z,446.00
2023-03-04T00:34:26.152Z,451.00
2023-03-04T00:35:21.476Z,452.00
2023-03-04T00:36:16.521Z,451.00
2023-03-04T00:37:11.642Z,454.00
2023-03-04T00:38:07.066Z,450.00
2023-03-04T00:39:02.093Z,448.00
2023-03-04T00:39:57.406Z,458.00
2023-03-04T00:40:52.898Z,449.00
2023-03-04T00:41:47.781Z,444.00
2023-03-04T00:42:42.916Z,450.00
2023-03-04T00:43:38.098Z,450.00
2023-03-04T00:44:33.234Z,451.00
2023-03-04T00:45:28.564Z,448.00
2023-03-04T00:46:23.907Z,450.00
2023-03-04T00:47:19.037Z,454.00
2023-03-04T00:48:14.302Z,447.00
2023-03-04T00:49:09.480Z,447.00
2023-03-04T00:50:04.661Z,449.00
2023-03-04T00:50:59.819Z,451.00
2023-03-04T00:51:55.084Z,445.00
2023-03-04T00:52:50.233Z,449.00
2023-03-04T00:53:45.391Z,451.00
2023-03-04T00:56:06.233Z,446.00
2023-03-04T00:57:01.314Z,445.00
2023-03-04T00:57:56.428Z,452.00
2023-03-04T00:58:51.614Z,459.00
2023-03-04T00:59:46.760Z,451.00
2023-03-04T01:00:42.081Z,453.00
2023-03-04T01:01:37.390Z,455.00
2023-03-04T01:02:32.734Z,455.00
2023-03-04T01:03:27.741Z,452.00
2023-03-04T01:04:22.919Z,452.00
2023-03-04T01:05:18.055Z,451.00
2023-03-04T01:06:13.481Z,454.00
2023-03-04T01:07:08.515Z,451.00
2023-03-04T01:08:03.970Z,454.00
2023-03-04T01:08:58.992Z,451.00
2023-03-04T01:09:54.267Z,453.00
2023-03-04T01:10:49.392Z,454.00
2023-03-04T01:11:44.564Z,454.00
2023-03-04T01:12:39.691Z,450.00
2023-03-04T01:13:35.121Z,455.00
2023-03-04T01:14:30.145Z,455.00
2023-03-04T01:15:25.478Z,459.00
2023-03-04T01:16:20.818Z,452.00
2023-03-04T01:17:15.857Z,453.00
2023-03-04T01:18:11.167Z,452.00
2023-03-04T01:19:06.213Z,455.00
2023-03-04T01:20:01.345Z,456.00
2023-03-04T01:20:57.130Z,448.00
2023-03-04T01:21:51.767Z,452.00
2023-03-04T01:22:46.920Z,455.00
2023-03-04T01:23:42.065Z,451.00
2023-03-04T01:24:37.241Z,451.00
2023-03-04T01:25:32.638Z,452.00
2023-03-04T01:26:27.781Z,452.00
2023-03-04T01:27:22.805Z,455.00
2023-03-04T01:28:18.092Z,463.00
2023-03-04T01:29:13.226Z,452.00
2023-03-04T01:30:08.504Z,456.00
2023-03-04T01:31:04.337Z,461.00
2023-03-04T01:31:58.927Z,457.00
2023-03-04T01:32:54.167Z,461.00
2023-03-04T01:33:49.313Z,452.00
2023-03-04T01:34:46.540Z,456.00
2023-03-04T01:35:39.742Z,463.00
2023-03-04T01:36:35.003Z,466.00
2023-03-04T01:37:30.199Z,471.00
2023-03-04T01:38:25.323Z,469.00
2023-03-04T01:39:20.500Z,465.00
2023-03-04T01:40:15.611Z,457.00
2023-03-04T01:41:10.899Z,462.00
2023-03-04T01:42:06.064Z,462.00
2023-03-04T01:43:01.372Z,463.00
2023-03-04T01:43:56.563Z,462.00
2023-03-04T01:44:51.808Z,463.00
2023-03-04T01:45:46.979Z,469.00
2023-03-04T01:46:42.305Z,466.00
2023-03-04T01:47:37.485Z,459.00
2023-03-04T01:48:32.741Z,456.00
2023-03-04T01:49:27.756Z,456.00
2023-03-04T01:50:23.047Z,456.00
2023-03-04T01:51:18.200Z,449.00
2023-03-04T01:52:13.365Z,454.00
2023-03-04T01:53:08.617Z,451.00
2023-03-04T01:54:03.776Z,454.00
2023-03-04T01:54:58.926Z,451.00
2023-03-04T01:55:54.245Z,453.00
2023-03-04T01:56:49.512Z,458.00
2023-03-04T01:57:44.684Z,452.00
2023-03-04T01:58:39.915Z,453.00
2023-03-04T01:59:35.245Z,454.00
2023-03-04T02:00:30.264Z,450.00
2023-03-04T02:01:25.561Z,455.00
2023-03-04T02:02:20.731Z,466.00
2023-03-04T02:03:16.042Z,453.00
2023-03-04T02:04:11.290Z,455.00
2023-03-04T02:05:06.430Z,451.00
2023-03-04T02:06:01.572Z,449.00
2023-03-04T02:06:56.982Z,457.00
2023-03-04T02:07:52.002Z,452.00
2023-03-04T02:08:47.279Z,451.00
2023-03-04T02:09:42.442Z,452.00
2023-03-04T02:10:37.820Z,456.00
2023-03-04T02:11:32.948Z,449.00
2023-03-04T02:12:28.118Z,457.00
2023-03-04T02:13:23.250Z,459.00
2023-03-04T02:14:18.437Z,464.00
2023-03-04T02:15:13.638Z,453.00
2023-03-04T02:16:08.842Z,459.00
2023-03-04T02:17:04.110Z,457.00
2023-03-04T02:17:59.275Z,459.00
2023-03-04T02:18:54.440Z,455.00
2023-03-04T02:19:49.763Z,453.00
2023-03-04T02:20:44.943Z,450.00
2023-03-04T02:21:40.145Z,458.00
2023-03-04T02:22:35.358Z,454.00
2023-03-04T02:23:30.550Z,452.00
2023-03-04T02:24:25.811Z,444.00
2023-03-04T02:25:20.993Z,450.00
2023-03-04T02:26:16.295Z,452.00
2023-03-04T02:27:11.637Z,448.00
2023-03-04T02:28:06.731Z,456.00
2023-03-04T02:29:01.894Z,456.00
2023-03-04T02:29:57.108Z,457.00
2023-03-04T02:30:52.361Z,450.00
2023-03-04T02:31:47.546Z,457.00
2023-03-04T02:32:42.960Z,460.00
2023-03-04T02:33:38.048Z,459.00
2023-03-04T02:34:33.239Z,459.00
2023-03-04T02:35:28.496Z,455.00
2023-03-04T02:36:23.702Z,456.00
2023-03-04T02:37:19.036Z,460.00
2023-03-04T02:38:14.327Z,460.00
2023-03-04T02:39:09.519Z,459.00
2023-03-04T02:40:04.723Z,458.00
2023-03-04T02:42:28.417Z,461.00
2023-03-04T02:43:23.515Z,462.00
2023-03-04T02:44:18.711Z,462.00
2023-03-04T02:45:13.924Z,459.00
2023-03-04T02:46:09.136Z,454.00
2023-03-04T02:47:04.556Z,453.00
2023-03-04T02:47:59.630Z,455.00
2023-03-04T02:48:54.956Z,468.00
2023-03-04T02:49:50.254Z,456.00
2023-03-04T02:50:45.854Z,461.00
2023-03-04T02:51:40.633Z,458.00
2023-03-04T02:52:36.091Z,460.00
2023-03-04T02:53:31.273Z,458.00
2023-03-04T02:54:26.609Z,458.00
2023-03-04T02:55:21.822Z,458.00
2023-03-04T02:56:17.107Z,456.00
2023-03-04T02:57:12.619Z,451.00
2023-03-04T02:58:07.571Z,457.00
2023-03-04T02:59:02.749Z,459.00
2023-03-04T02:59:58.093Z,455.00
2023-03-04T03:00:53.311Z,461.00
2023-03-04T03:01:48.701Z,459.00
2023-03-04T03:02:44.193Z,461.00
2023-03-04T03:03:39.150Z,462.00
2023-03-04T03:04:34.348Z,464.00
2023-03-04T03:05:29.677Z,460.00
2023-03-04T03:06:24.855Z,467.00
2023-03-04T03:07:20.196Z,470.00
2023-03-04T03:08:15.416Z,465.00
2023-03-04T03:09:10.739Z,467.00
2023-03-04T03:10:05.907Z,475.00
2023-03-04T03:11:01.167Z,472.00
2023-03-04T03:11:56.355Z,476.00
2023-03-04T03:12:51.705Z,473.00
2023-03-04T03:13:46.786Z,483.00
2023-03-04T03:14:41.993Z,477.00
2023-03-04T03:15:37.231Z,476.00
2023-03-04T03:16:32.481Z,474.00
2023-03-04T03:17:27.662Z,470.00
2023-03-04T03:18:22.891Z,463.00
2023-03-04T03:22:11.364Z,475.00
2023-03-04T03:23:06.490Z,467.00
2023-03-04T03:24:01.639Z,468.00
2023-03-04T03:24:56.883Z,470.00
2023-03-04T03:25:52.052Z,468.00
2023-03-04T03:26:47.406Z,467.00
2023-03-04T03:27:42.619Z,463.00
2023-03-04T03:28:37.848Z,497.00
2023-03-04T03:29:33.057Z,477.00
2023-03-04T03:30:28.265Z,466.00
2023-03-04T03:31:23.527Z,468.00
2023-03-04T03:32:18.904Z,465.00
2023-03-04T03:33:14.000Z,460.00
2023-03-04T03:34:09.313Z,458.00
2023-03-04T03:35:04.414Z,459.00
2023-03-04T03:35:59.873Z,464.00
2023-03-04T03:36:54.900Z,459.00
2023-03-04T03:37:50.132Z,462.00
2023-03-04T03:38:45.332Z,463.00
2023-03-04T03:39:40.540Z,458.00
2023-03-04T03:40:35.868Z,468.00
2023-03-04T03:41:31.069Z,460.00
2023-03-04T03:42:26.388Z,459.00
2023-03-04T03:43:21.626Z,462.00
2023-03-04T03:44:16.799Z,465.00
2023-03-04T03:45:12.062Z,456.00
2023-03-04T03:46:07.326Z,462.00
2023-03-04T03:47:02.560Z,461.00
2023-03-04T03:47:57.770Z,461.00
2023-03-04T03:48:52.984Z,461.00
2023-03-04T03:49:48.162Z,459.00
2023-03-04T03:50:43.409Z,465.00
2023-03-04T03:51:38.787Z,456.00
2023-03-04T03:52:33.995Z,457.00
2023-03-04T03:53:29.069Z,455.00
2023-03-04T03:54:24.416Z,459.00
2023-03-04T03:55:19.632Z,460.00
2023-03-04T03:56:14.974Z,458.00
2023-03-04T03:57:10.386Z,456.00
2023-03-04T03:58:05.491Z,463.00
2023-03-04T03:59:00.704Z,459.00
2023-03-04T03:59:55.988Z,458.00
2023-03-04T04:00:51.244Z,453.00
2023-03-04T04:01:46.424Z,456.00
2023-03-04T04:02:42.001Z,456.00
2023-03-04T04:03:36.882Z,454.00
2023-03-04T04:04:32.058Z,456.00
2023-03-04T04:05:27.458Z,456.00
2023-03-04T04:06:22.579Z,457.00
2023-03-04T04:07:17.787Z,460.00
2023-03-04T04:08:12.980Z,459.00
2023-03-04T04:09:08.210Z,464.00
2023-03-04T04:10:03.381Z,459.00
2023-03-04T04:12:23.765Z,460.00
2023-03-04T04:13:18.857Z,459.00
2023-03-04T04:14:14.057Z,459.00
2023-03-04T04:15:09.289Z,460.00
2023-03-04T04:16:04.634Z,458.00
2023-03-04T04:16:59.774Z,462.00
2023-03-04T04:17:54.985Z,458.00
2023-03-04T04:18:50.324Z,463.00
2023-03-04T04:19:45.685Z,459.00
2023-03-04T04:20:40.774Z,462.00
2023-03-04T04:21:35.984Z,466.00
2023-03-04T04:22:31.429Z,462.00
2023-03-04T04:23:26.514Z,462.00
2023-03-04T04:24:21.877Z,467.00
2023-03-04T04:25:17.098Z,464.00
2023-03-04T04:26:12.411Z,466.00
2023-03-04T04:27:07.608Z,472.00
2023-03-04T04:28:02.969Z,464.00
2023-03-04T04:28:58.020Z,476.00
2023-03-04T04:29:53.376Z,472.00
2023-03-04T04:30:48.679Z,469.00
2023-03-04T04:31:43.957Z,473.00
2023-03-04T04:32:39.415Z,475.00
2023-03-04T04:33:34.508Z,470.00
2023-03-04T04:34:29.745Z,471.00
2023-03-04T04:35:25.008Z,472.00
2023-03-04T04:36:20.209Z,481.00
2023-03-04T04:37:15.544Z,477.00
2023-03-04T04:38:10.622Z,471.00
2023-03-04T04:39:05.962Z,466.00
2023-03-04T04:40:01.147Z,465.00
2023-03-04T04:40:56.557Z,458.00
2023-03-04T04:41:51.622Z,459.00
2023-03-04T04:42:47.100Z,467.00
2023-03-04T04:43:42.210Z,467.00
2023-03-04T04:44:37.407Z,462.00
2023-03-04T04:45:32.612Z,476.00
2023-03-04T04:46:27.850Z,475.00
2023-03-04T04:47:23.049Z,482.00
2023-03-04T04:48:18.312Z,480.00
2023-03-04T04:49:13.655Z,480.00
2023-03-04T04:50:08.855Z,477.00
2023-03-04T04:51:04.058Z,473.00
2023-03-04T04:51:59.395Z,473.00
2023-03-04T04:52:54.762Z,471.00
2023-03-04T04:53:49.829Z,471.00
2023-03-04T04:54:45.045Z,466.00
2023-03-04T04:55:40.292Z,466.00
2023-03-04T04:56:35.490Z,465.00
2023-03-04T04:57:31.200Z,467.00
2023-03-04T04:58:25.907Z,466.00
2023-03-04T04:59:21.149Z,463.00
2023-03-04T05:00:16.350Z,464.00
2023-03-04T05:01:11.658Z,463.00
2023-03-04T05:02:06.860Z,463.00
2023-03-04T05:03:02.825Z,468.00
2023-03-04T05:03:57.493Z,469.00
2023-03-04T05:04:52.822Z,470.00
2023-03-04T05:05:48.175Z,472.00
2023-03-04T05:06:43.374Z,474.00
2023-03-04T05:07:38.603Z,469.00
2023-03-04T05:08:33.848Z,467.00
2023-03-04T05:09:29.047Z,468.00
2023-03-04T05:10:24.262Z,466.00
2023-03-04T05:11:19.553Z,470.00
2023-03-04T05:12:14.769Z,466.00
2023-03-04T05:13:10.125Z,471.00
2023-03-04T05:14:05.221Z,463.00
2023-03-04T05:15:00.421Z,466.00
2023-03-04T05:15:55.750Z,466.00
2023-03-04T05:16:50.951Z,469.00
2023-03-04T05:17:46.179Z,480.00
2023-03-04T05:18:41.391Z,471.00
2023-03-04T05:19:37.623Z,473.00
2023-03-04T05:20:31.862Z,472.00
2023-03-04T05:21:27.104Z,471.00
2023-03-04T05:22:22.293Z,476.00
2023-03-04T05:23:17.773Z,470.00
2023-03-04T05:24:12.872Z,467.00
2023-03-04T05:25:08.325Z,468.00
2023-03-04T05:26:03.411Z,467.00
2023-03-04T05:26:58.633Z,477.00
2023-03-04T05:27:53.818Z,480.00
2023-03-04T05:28:49.060Z,475.00
2023-03-04T05:29:44.271Z,474.00
2023-03-04T05:32:04.881Z,478.00
2023-03-04T05:33:00.828Z,477.00
2023-03-04T05:33:56.859Z,475.00
2023-03-04T05:34:50.335Z,476.00
2023-03-04T05:35:45.771Z,475.00
2023-03-04T05:36:40.974Z,474.00
2023-03-04T05:37:36.222Z,474.00
2023-03-04T05:38:31.552Z,485.00
2023-03-04T05:39:26.817Z,488.00
2023-03-04T05:40:22.084Z,493.00
2023-03-04T05:41:17.501Z,494.00
2023-03-04T05:42:13.046Z,487.00
2023-03-04T05:43:08.078Z,490.00
2023-03-04T05:44:03.337Z,497.00
2023-03-04T05:44:58.620Z,495.00
2023-03-04T05:45:53.846Z,493.00
2023-03-04T05:46:49.372Z,497.00
2023-03-04T05:47:44.385Z,494.00
2023-03-04T05:48:39.777Z,497.00
2023-03-04T05:49:35.035Z,493.00
2023-03-04T05:50:30.339Z,497.00
2023-03-04T05:51:25.692Z,499.00
2023-03-04T05:52:21.083Z,500.00
2023-03-04T05:53:16.821Z,498.00
2023-03-04T05:54:11.623Z,495.00
2023-03-04T05:55:06.950Z,499.00
2023-03-04T05:56:02.269Z,499.00
2023-03-04T05:56:57.578Z,504.00
2023-03-04T05:57:52.909Z,502.00
2023-03-04T05:58:48.418Z,502.00
2023-03-04T05:59:43.653Z,506.00
2023-03-04T06:00:39.074Z,509.00
2023-03-04T06:01:34.465Z,505.00
2023-03-04T06:02:30.036Z,507.00
2023-03-04T06:03:25.320Z,511.00
2023-03-04T06:04:20.815Z,511.00
2023-03-04T06:05:16.090Z,508.00
2023-03-04T06:06:11.626Z,512.00
2023-03-04T06:07:06.986Z,512.00
2023-03-04T06:08:02.267Z,514.00
2023-03-04T06:08:57.633Z,512.00
2023-03-04T06:09:52.992Z,512.00
2023-03-04T06:10:48.391Z,514.00
2023-03-04T06:11:43.796Z,515.00
2023-03-04T06:12:39.397Z,513.00
2023-03-04T06:13:34.517Z,512.00
2023-03-04T06:14:29.967Z,513.00
2023-03-04T06:15:25.247Z,515.00
2023-03-04T06:16:20.662Z,515.00
2023-03-04T06:17:16.049Z,523.00
2023-03-04T06:18:11.446Z,519.00
2023-03-04T06:19:06.818Z,527.00
2023-03-04T06:20:02.223Z,523.00
2023-03-04T06:20:57.597Z,526.00
2023-03-04T06:21:52.983Z,524.00
2023-03-04T06:22:48.536Z,528.00
2023-03-04T06:23:43.866Z,524.00
2023-03-04T06:24:39.387Z,520.00
2023-03-04T06:25:34.731Z,525.00
2023-03-04T06:26:30.136Z,530.00
2023-03-04T06:27:25.556Z,538.00
2023-03-04T06:28:21.001Z,537.00
2023-03-04T06:29:16.575Z,527.00
2023-03-04T06:30:12.101Z,525.00
2023-03-04T06:31:07.467Z,526.00
2023-03-04T06:32:03.042Z,523.00
2023-03-04T06:32:58.517Z,523.00
2023-03-04T06:33:53.964Z,517.00
2023-03-04T06:34:49.399Z,518.00
2023-03-04T06:35:45.248Z,529.00
2023-03-04T06:36:40.669Z,525.00
2023-03-04T06:37:35.968Z,524.00
2023-03-04T06:38:31.440Z,527.00
2023-03-04T06:39:26.974Z,526.00
2023-03-04T06:40:22.793Z,542.00
2023-03-04T06:41:17.955Z,526.00
2023-03-04T06:42:13.273Z,529.00
2023-03-04T06:43:08.738Z,525.00
2023-03-04T06:44:04.415Z,522.00
2023-03-04T06:44:59.892Z,520.00
2023-03-04T06:45:55.391Z,522.00
2023-03-04T06:46:51.077Z,513.00
2023-03-04T06:47:46.639Z,509.00
2023-03-04T06:48:41.588Z,498.00
2023-03-04T06:49:36.715Z,500.00
2023-03-04T06:50:31.988Z,501.00
2023-03-04T06:51:26.794Z,508.00
2023-03-04T06:52:21.766Z,510.00
2023-03-04T06:53:16.829Z,497.00
2023-03-04T06:54:11.931Z,488.00
2023-03-04T06:56:32.980Z,483.00
2023-03-04T06:57:28.244Z,483.00
2023-03-04T06:58:23.717Z,485.00
2023-03-04T06:59:19.242Z,484.00
2023-03-04T07:00:14.719Z,484.00
2023-03-04T07:01:10.254Z,481.00
2023-03-04T07:02:05.675Z,473.00
2023-03-04T07:03:01.305Z,476.00
2023-03-04T07:03:56.809Z,472.00
2023-03-04T07:04:52.364Z,476.00
2023-03-04T07:05:47.894Z,479.00
2023-03-04T07:06:43.395Z,478.00
2023-03-04T07:07:38.994Z,482.00
2023-03-04T07:08:34.309Z,477.00
2023-03-04T07:09:29.713Z,477.00
2023-03-04T07:10:25.760Z,478.00
2023-03-04T07:11:20.771Z,482.00
2023-03-04T07:12:16.216Z,480.00
2023-03-04T07:13:11.675Z,483.00
2023-03-04T07:14:07.243Z,483.00
2023-03-04T07:15:02.668Z,490.00
2023-03-04T07:15:58.266Z,489.00
2023-03-04T07:16:53.590Z,490.00
2023-03-04T07:17:49.037Z,497.00
2023-03-04T07:18:44.483Z,502.00
2023-03-04T07:19:40.103Z,506.00
2023-03-04T07:20:35.521Z,498.00
2023-03-04T07:21:31.098Z,508.00
2023-03-04T07:22:26.409Z,506.00
2023-03-04T07:23:21.893Z,499.00
2023-03-04T07:24:17.460Z,496.00
2023-03-04T07:25:12.905Z,495.00
2023-03-04T07:26:08.343Z,498.00
2023-03-04T07:27:03.943Z,497.00
2023-03-04T07:27:59.333Z,498.00
2023-03-04T07:28:54.661Z,501.00
2023-03-04T07:29:50.252Z,497.00
2023-03-04T07:30:45.970Z,498.00
2023-03-04T07:31:41.190Z,485.00
2023-03-04T07:32:36.715Z,490.00
2023-03-04T07:33:32.146Z,494.00
2023-03-04T07:34:27.566Z,494.00
2023-03-04T07:35:23.027Z,487.00
2023-03-04T07:36:18.367Z,486.00
2023-03-04T07:37:13.903Z,494.00
2023-03-04T07:38:09.379Z,494.00
2023-03-04T07:39:04.811Z,486.00
2023-03-04T07:40:00.415Z,493.00
2023-03-04T07:40:55.912Z,492.00
2023-03-04T07:41:51.229Z,489.00
2023-03-04T07:42:46.918Z,487.00
2023-03-04T07:43:42.250Z,510.00
2023-03-04T07:44:37.666Z,485.00
2023-03-04T07:45:33.167Z,491.00
2023-03-04T07:46:29.132Z,492.00
2023-03-04T07:47:24.041Z,496.00
2023-03-04T07:48:19.487Z,481.00
2023-03-04T07:49:15.065Z,485.00
2023-03-04T07:50:10.478Z,487.00
2023-03-04T07:51:05.932Z,478.00
2023-03-04T07:52:01.390Z,481.00
2023-03-04T07:52:56.833Z,482.00
2023-03-04T07:53:52.316Z,486.00
2023-03-04T07:54:47.749Z,478.00
2023-03-04T07:55:43.201Z,477.00
2023-03-04T07:56:38.787Z,479.00
2023-03-04T07:57:34.267Z,476.00
2023-03-04T07:58:29.989Z,463.00
2023-03-04T07:59:25.217Z,465.00
2023-03-04T08:00:20.668Z,472.00
2023-03-04T08:01:16.165Z,489.00
2023-03-04T08:02:11.816Z,468.00
2023-03-04T08:03:07.307Z,471.00
2023-03-04T08:04:03.351Z,472.00
2023-03-04T08:04:58.318Z,474.00
2023-03-04T08:05:53.800Z,476.00
2023-03-04T08:06:49.329Z,468.00
2023-03-04T08:07:44.943Z,466.00
2023-03-04T08:08:40.427Z,468.00
2023-03-04T08:09:36.037Z,496.00
2023-03-04T08:10:31.564Z,475.00
2023-03-04T08:11:27.064Z,472.00
2023-03-04T08:12:22.563Z,474.00
2023-03-04T08:13:18.067Z,477.00
2023-03-04T08:14:13.563Z,485.00
2023-03-04T08:15:09.090Z,482.00
2023-03-04T08:16:04.652Z,512.00
2023-03-04T08:17:00.032Z,487.00
2023-03-04T08:17:55.549Z,466.00
2023-03-04T08:18:51.065Z,471.00
2023-03-04T08:19:46.701Z,493.00
2023-03-04T08:20:42.097Z,479.00
2023-03-04T08:21:37.516Z,469.00
2023-03-04T08:22:33.058Z,454.00
2023-03-04T08:23:28.617Z,453.00
2023-03-04T08:24:24.009Z,457.00
2023-03-04T08:25:19.634Z,443.00
2023-03-04T08:26:15.113Z,444.00
2023-03-04T08:27:10.623Z,443.00
2023-03-04T08:28:06.015Z,448.00
2023-03-04T08:29:01.625Z,450.00
2023-03-04T08:29:56.996Z,449.00
2023-03-04T08:30:52.576Z,444.00
2023-03-04T08:31:49.054Z,442.00
2023-03-04T08:32:43.624Z,441.00
2023-03-04T08:33:38.982Z,440.00
2023-03-04T08:34:34.875Z,439.00
2023-03-04T08:35:29.970Z,446.00
2023-03-04T08:36:25.607Z,444.00
2023-03-04T08:37:21.127Z,447.00
2023-03-04T08:38:16.667Z,456.00
2023-03-04T08:39:12.268Z,447.00
2023-03-04T08:40:07.836Z,448.00
2023-03-04T08:41:03.350Z,446.00
2023-03-04T08:41:58.998Z,445.00
2023-03-04T08:42:54.518Z,440.00
2023-03-04T08:43:50.024Z,434.00
2023-03-04T08:44:45.563Z,429.00
2023-03-04T08:45:41.226Z,434.00
2023-03-04T08:46:36.561Z,437.00
2023-03-04T08:47:32.213Z,442.00
2023-03-04T08:48:27.593Z,437.00
2023-03-04T08:49:23.216Z,440.00
2023-03-04T08:50:21.306Z,436.00
2023-03-04T08:51:14.310Z,433.00
2023-03-04T08:52:09.746Z,444.00
2023-03-04T08:53:05.265Z,492.00
2023-03-04T08:54:00.735Z,447.00
2023-03-04T08:54:56.224Z,440.00
2023-03-04T08:55:51.752Z,433.00
2023-03-04T08:56:47.309Z,435.00
2023-03-04T08:57:42.701Z,435.00
2023-03-04T08:58:38.143Z,425.00
2023-03-04T08:59:33.563Z,427.00
2023-03-04T09:00:28.997Z,442.00
2023-03-04T09:01:24.486Z,432.00
2023-03-04T09:02:20.042Z,435.00
2023-03-04T09:03:15.612Z,431.00
2023-03-04T09:04:11.177Z,426.00
2023-03-04T09:05:06.496Z,419.00
2023-03-04T09:06:01.927Z,424.00
2023-03-04T09:06:57.264Z,419.00
2023-03-04T09:07:52.955Z,425.00
2023-03-04T09:08:48.274Z,420.00
2023-03-04T09:09:43.714Z,424.00
2023-03-04T09:10:39.118Z,416.00
2023-03-04T09:11:34.801Z,424.00
2023-03-04T09:12:29.979Z,428.00
2023-03-04T09:13:26.473Z,458.00
2023-03-04T09:14:20.861Z,467.00
2023-03-04T09:15:16.428Z,464.00
2023-03-04T09:16:11.876Z,475.00
2023-03-04T09:17:07.206Z,465.00
2023-03-04T09:18:02.826Z,459.00
2023-03-04T09:18:58.151Z,478.00
2023-03-04T09:19:53.666Z,467.00
2023-03-04T09:20:49.067Z,474.00
2023-03-04T09:21:44.636Z,452.00
2023-03-04T09:22:40.173Z,449.00
2023-03-04T09:23:35.552Z,463.00
2023-03-04T09:24:31.324Z,473.00
2023-03-04T09:25:27.619Z,471.00
2023-03-04T09:26:22.197Z,473.00
2023-03-04T09:27:17.643Z,464.00
2023-03-04T09:28:13.013Z,472.00
2023-03-04T09:29:08.541Z,459.00
2023-03-04T09:30:04.102Z,467.00
2023-03-04T09:33:56.716Z,441.00
2023-03-04T09:34:51.995Z,466.00
2023-03-04T09:35:47.588Z,474.00
2023-03-04T09:36:42.903Z,478.00
2023-03-04T09:37:40.950Z,470.00
2023-03-04T09:38:33.764Z,464.00
2023-03-04T09:39:29.354Z,463.00
2023-03-04T09:40:24.746Z,468.00
2023-03-04T09:41:20.156Z,482.00
2023-03-04T09:42:15.698Z,487.00
2023-03-04T09:43:11.284Z,472.00
2023-03-04T09:44:06.844Z,479.00
2023-03-04T09:45:02.156Z,467.00
2023-03-04T09:45:57.558Z,448.00
2023-03-04T09:46:53.081Z,474.00
2023-03-04T09:47:48.493Z,451.00
2023-03-04T09:48:44.059Z,456.00
2023-03-04T09:49:39.450Z,454.00
2023-03-04T09:50:34.763Z,462.00
2023-03-04T09:51:30.399Z,457.00
2023-03-04T09:52:25.697Z,467.00
2023-03-04T09:53:21.138Z,465.00
2023-03-04T09:54:16.702Z,451.00
2023-03-04T09:55:12.170Z,466.00
2023-03-04T09:56:07.619Z,464.00
2023-03-04T09:57:03.421Z,453.00
2023-03-04T09:57:58.593Z,452.00
2023-03-04T09:58:54.013Z,466.00
2023-03-04T09:59:49.581Z,465.00
2023-03-04T10:00:44.984Z,453.00
2023-03-04T10:01:40.339Z,456.00
2023-03-04T10:02:35.786Z,456.00
2023-03-04T10:03:31.171Z,469.00
2023-03-04T10:04:26.871Z,471.00
2023-03-04T10:05:22.111Z,465.00
2023-03-04T10:06:17.605Z,467.00
2023-03-04T10:07:14.585Z,489.00
2023-03-04T10:08:08.445Z,476.00
2023-03-04T10:09:03.969Z,457.00
2023-03-04T10:09:59.457Z,450.00
2023-03-04T10:10:54.984Z,463.00
2023-03-04T10:11:50.474Z,454.00
2023-03-04T10:12:45.947Z,470.00
2023-03-04T10:13:41.470Z,463.00
2023-03-04T10:14:36.953Z,446.00
2023-03-04T10:15:32.308Z,454.00
2023-03-04T10:16:27.818Z,450.00
2023-03-04T10:17:23.219Z,464.00
2023-03-04T10:18:20.510Z,477.00
2023-03-04T10:19:14.269Z,465.00
2023-03-04T10:20:09.812Z,475.00
2023-03-04T10:21:05.755Z,481.00
2023-03-04T10:22:00.676Z,459.00
2023-03-04T10:22:56.163Z,462.00
2023-03-04T10:23:51.529Z,451.00
2023-03-04T10:24:47.000Z,465.00
2023-03-04T10:25:42.436Z,461.00
2023-03-04T10:26:37.831Z,475.00
2023-03-04T10:27:33.339Z,484.00
2023-03-04T10:28:28.728Z,469.00
2023-03-04T10:29:24.198Z,465.00
2023-03-04T10:30:19.678Z,465.00
2023-03-04T10:31:15.098Z,463.00
2023-03-04T10:32:10.473Z,463.00
2023-03-04T10:33:05.804Z,456.00
2023-03-04T10:34:01.448Z,463.00
2023-03-04T10:34:56.866Z,462.00
2023-03-04T10:35:52.264Z,464.00
2023-03-04T10:36:47.591Z,459.00
2023-03-04T10:37:43.076Z,464.00
2023-03-04T10:38:38.455Z,461.00
2023-03-04T10:39:33.963Z,462.00
2023-03-04T10:40:29.311Z,465.00
2023-03-04T10:41:24.954Z,458.00
2023-03-04T10:42:20.366Z,461.00
2023-03-04T10:43:15.764Z,464.00
2023-03-04T10:44:11.124Z,461.00
2023-03-04T10:45:06.630Z,465.00
2023-03-04T10:46:02.153Z,458.00
2023-03-04T10:46:57.394Z,458.00
2023-03-04T10:47:52.971Z,454.00
2023-03-04T10:48:48.430Z,458.00
2023-03-04T10:49:43.842Z,459.00
2023-03-04T10:50:39.426Z,463.00
2023-03-04T10:51:34.601Z,456.00
2023-03-04T10:52:30.037Z,463.00
2023-03-04T10:53:25.423Z,460.00
2023-03-04T10:54:20.889Z,459.00
2023-03-04T10:55:16.298Z,467.00
2023-03-04T10:56:11.845Z,462.00
2023-03-04T10:57:06.971Z,461.00
2023-03-04T10:58:02.413Z,461.00
2023-03-04T10:58:57.845Z,461.00
2023-03-04T10:59:53.282Z,468.00
2023-03-04T11:00:48.694Z,489.00
2023-03-04T11:01:44.318Z,459.00
2023-03-04T11:02:39.850Z,460.00
2023-03-04T11:03:35.175Z,466.00
2023-03-04T11:04:30.480Z,465.00
2023-03-04T11:05:26.064Z,461.00
2023-03-04T11:06:21.554Z,464.00
2023-03-04T11:07:16.914Z,460.00
2023-03-04T11:08:12.572Z,458.00
2023-03-04T11:09:07.871Z,462.00
2023-03-04T11:10:03.187Z,462.00
2023-03-04T11:10:58.622Z,461.00
2023-03-04T11:11:54.193Z,464.00
2023-03-04T11:12:49.581Z,457.00
2023-03-04T11:13:45.111Z,458.00
2023-03-04T11:14:40.653Z,453.00
2023-03-04T11:15:36.228Z,455.00
2023-03-04T11:16:31.688Z,456.00
2023-03-04T11:17:27.336Z,455.00
2023-03-04T11:18:22.610Z,447.00
2023-03-04T11:19:18.882Z,447.00
2023-03-04T11:20:13.472Z,449.00
2023-03-04T11:21:08.861Z,452.00
2023-03-04T11:22:04.448Z,449.00
2023-03-04T11:22:59.743Z,453.00
2023-03-04T11:23:55.286Z,454.00
2023-03-04T11:24:50.977Z,450.00
2023-03-04T11:25:46.278Z,453.00
2023-03-04T11:26:41.747Z,450.00
2023-03-04T11:27:37.336Z,452.00
2023-03-04T11:28:32.863Z,449.00
2023-03-04T11:29:28.305Z,450.00
2023-03-04T11:30:23.732Z,453.00
2023-03-04T11:31:19.152Z,455.00
2023-03-04T11:32:15.224Z,465.00
2023-03-04T11:33:10.047Z,463.00
2023-03-04T11:34:05.587Z,466.00
2023-03-04T11:35:01.146Z,468.00
2023-03-04T11:35:56.750Z,466.00
2023-03-04T11:36:52.057Z,469.00
2023-03-04T11:37:47.636Z,471.00
2023-03-04T11:38:43.029Z,461.00
2023-03-04T11:39:38.448Z,466.00
2023-03-04T11:40:33.878Z,470.00
2023-03-04T11:41:29.405Z,467.00
2023-03-04T11:42:24.835Z,468.00
2023-03-04T11:43:20.146Z,470.00
2023-03-04T11:44:15.780Z,464.00
2023-03-04T11:45:26.160Z,475.00